sensor_id;sensor_type;location;lat;lon;timestamp;P1;durP1;ratioP1;P2;durP2;ratioP2
30370;SDS011;17164;48.590;11.410;2022-08-01T00:00:36;4.73;;;2.00;;
30370;SDS011;17164;48.590;11.410;2022-08-01T00:03:02;3.37;;;1.47;;
30370;SDS011;17164;48.590;11.410;2022-08-01T00:05:29;2.87;;;1.67;;
30370;SDS011;17164;48.590;11.410;2022-08-01T00:07:54;2.53;;;1.60;;
30370;SDS011;17164;48.590;11.410;2022-08-01T00:10:20;4.37;;;2.00;;
30370;SDS011;17164;48.590;11.410;2022-08-01T00:12:46;3.37;;;1.70;;
30370;SDS011;17164;48.590;11.410;2022-08-01T00:15:13;3.03;;;1.70;;
30370;SDS011;17164;48.590;11.410;2022-08-01T00:17:40;2.73;;;1.70;;
30370;SDS011;17164;48.590;11.410;2022-08-01T00:20:07;3.63;;;1.80;;
30370;SDS011;17164;48.590;11.410;2022-08-01T00:22:36;1.97;;;1.60;;
30370;SDS011;17164;48.590;11.410;2022-08-01T00:25:02;2.10;;;1.40;;
30370;SDS011;17164;48.590;11.410;2022-08-01T00:27:28;3.07;;;1.93;;
30370;SDS011;17164;48.590;11.410;2022-08-01T00:29:54;2.70;;;1.73;;
30370;SDS011;17164;48.590;11.410;2022-08-01T00:32:19;3.77;;;1.80;;
30370;SDS011;17164;48.590;11.410;2022-08-01T00:34:45;4.20;;;1.80;;
30370;SDS011;17164;48.590;11.410;2022-08-01T00:37:10;4.47;;;1.97;;
30370;SDS011;17164;48.590;11.410;2022-08-01T00:39:36;4.00;;;1.67;;
30370;SDS011;17164;48.590;11.410;2022-08-01T00:42:05;2.47;;;1.60;;
30370;SDS011;17164;48.590;11.410;2022-08-01T00:44:32;4.37;;;1.93;;
30370;SDS011;17164;48.590;11.410;2022-08-01T00:46:58;3.93;;;1.80;;
30370;SDS011;17164;48.590;11.410;2022-08-01T00:49:24;2.87;;;1.90;;
30370;SDS011;17164;48.590;11.410;2022-08-01T00:51:50;3.73;;;1.73;;
30370;SDS011;17164;48.590;11.410;2022-08-01T00:54:15;5.03;;;2.10;;
30370;SDS011;17164;48.590;11.410;2022-08-01T00:56:41;2.73;;;1.83;;
30370;SDS011;17164;48.590;11.410;2022-08-01T00:59:07;6.17;;;2.13;;
30370;SDS011;17164;48.590;11.410;2022-08-01T01:01:33;5.00;;;2.20;;
30370;SDS011;17164;48.590;11.410;2022-08-01T01:04:00;3.77;;;2.07;;
30370;SDS011;17164;48.590;11.410;2022-08-01T01:11:53;2.83;;;1.63;;
30370;SDS011;17164;48.590;11.410;2022-08-01T01:14:33;2.60;;;1.63;;
30370;SDS011;17164;48.590;11.410;2022-08-01T01:17:09;3.07;;;1.90;;
30370;SDS011;17164;48.590;11.410;2022-08-01T01:19:39;3.47;;;2.00;;
30370;SDS011;17164;48.590;11.410;2022-08-01T01:27:51;5.10;;;1.77;;
30370;SDS011;17164;48.590;11.410;2022-08-01T01:30:32;3.37;;;1.93;;
30370;SDS011;17164;48.590;11.410;2022-08-01T01:33:01;3.63;;;1.83;;
30370;SDS011;17164;48.590;11.410;2022-08-01T01:35:34;3.33;;;1.57;;
30370;SDS011;17164;48.590;11.410;2022-08-01T01:38:05;3.70;;;2.10;;
30370;SDS011;17164;48.590;11.410;2022-08-01T01:40:35;4.40;;;1.70;;
30370;SDS011;17164;48.590;11.410;2022-08-01T01:43:02;3.33;;;1.80;;
30370;SDS011;17164;48.590;11.410;2022-08-01T01:45:29;1.67;;;1.47;;
30370;SDS011;17164;48.590;11.410;2022-08-01T01:47:55;6.37;;;2.03;;
30370;SDS011;17164;48.590;11.410;2022-08-01T01:50:23;3.53;;;2.03;;
30370;SDS011;17164;48.590;11.410;2022-08-01T01:52:50;2.07;;;1.50;;
30370;SDS011;17164;48.590;11.410;2022-08-01T01:55:17;3.93;;;2.27;;
30370;SDS011;17164;48.590;11.410;2022-08-01T01:57:46;3.07;;;1.80;;
30370;SDS011;17164;48.590;11.410;2022-08-01T02:00:13;4.30;;;2.00;;
30370;SDS011;17164;48.590;11.410;2022-08-01T02:02:40;3.10;;;1.80;;
30370;SDS011;17164;48.590;11.410;2022-08-01T02:05:07;2.90;;;1.90;;
30370;SDS011;17164;48.590;11.410;2022-08-01T02:07:35;4.33;;;2.07;;
30370;SDS011;17164;48.590;11.410;2022-08-01T02:10:02;6.33;;;2.00;;
30370;SDS011;17164;48.590;11.410;2022-08-01T02:12:29;3.90;;;1.80;;
30370;SDS011;17164;48.590;11.410;2022-08-01T02:14:58;4.17;;;2.20;;
30370;SDS011;17164;48.590;11.410;2022-08-01T02:17:26;3.93;;;2.20;;
30370;SDS011;17164;48.590;11.410;2022-08-01T02:19:53;6.83;;;1.93;;
30370;SDS011;17164;48.590;11.410;2022-08-01T02:22:21;2.50;;;1.90;;
30370;SDS011;17164;48.590;11.410;2022-08-01T02:30:25;2.60;;;1.93;;
30370;SDS011;17164;48.590;11.410;2022-08-01T02:32:59;3.10;;;1.70;;
30370;SDS011;17164;48.590;11.410;2022-08-01T02:35:41;3.40;;;1.83;;
30370;SDS011;17164;48.590;11.410;2022-08-01T02:38:09;2.37;;;1.40;;
30370;SDS011;17164;48.590;11.410;2022-08-01T02:40:38;3.93;;;1.87;;
30370;SDS011;17164;48.590;11.410;2022-08-01T02:43:06;4.20;;;1.93;;
30370;SDS011;17164;48.590;11.410;2022-08-01T02:45:34;5.70;;;2.00;;
30370;SDS011;17164;48.590;11.410;2022-08-01T02:48:06;3.63;;;1.90;;
30370;SDS011;17164;48.590;11.410;2022-08-01T02:50:35;3.50;;;1.87;;
30370;SDS011;17164;48.590;11.410;2022-08-01T02:53:02;2.37;;;1.63;;
30370;SDS011;17164;48.590;11.410;2022-08-01T02:55:31;2.90;;;1.83;;
30370;SDS011;17164;48.590;11.410;2022-08-01T02:57:59;8.27;;;1.80;;
30370;SDS011;17164;48.590;11.410;2022-08-01T03:00:27;4.00;;;2.10;;
30370;SDS011;17164;48.590;11.410;2022-08-01T03:02:54;3.30;;;1.80;;
30370;SDS011;17164;48.590;11.410;2022-08-01T03:05:22;3.77;;;2.30;;
30370;SDS011;17164;48.590;11.410;2022-08-01T03:07:50;6.70;;;2.50;;
30370;SDS011;17164;48.590;11.410;2022-08-01T03:10:17;2.97;;;1.80;;
30370;SDS011;17164;48.590;11.410;2022-08-01T03:12:43;5.37;;;2.00;;
30370;SDS011;17164;48.590;11.410;2022-08-01T03:15:12;3.23;;;2.30;;
30370;SDS011;17164;48.590;11.410;2022-08-01T03:17:39;2.80;;;1.70;;
30370;SDS011;17164;48.590;11.410;2022-08-01T03:20:08;2.67;;;2.00;;
30370;SDS011;17164;48.590;11.410;2022-08-01T03:22:37;3.07;;;1.77;;
30370;SDS011;17164;48.590;11.410;2022-08-01T03:25:05;4.57;;;1.90;;
30370;SDS011;17164;48.590;11.410;2022-08-01T03:27:32;3.50;;;2.17;;
30370;SDS011;17164;48.590;11.410;2022-08-01T03:30:00;6.87;;;2.40;;
30370;SDS011;17164;48.590;11.410;2022-08-01T03:32:29;7.77;;;2.40;;
30370;SDS011;17164;48.590;11.410;2022-08-01T03:34:55;5.30;;;1.90;;
30370;SDS011;17164;48.590;11.410;2022-08-01T03:37:29;4.13;;;2.20;;
30370;SDS011;17164;48.590;11.410;2022-08-01T03:39:58;6.33;;;2.00;;
30370;SDS011;17164;48.590;11.410;2022-08-01T03:42:33;2.97;;;2.03;;
30370;SDS011;17164;48.590;11.410;2022-08-01T03:45:05;5.10;;;2.43;;
30370;SDS011;17164;48.590;11.410;2022-08-01T03:47:34;3.23;;;1.90;;
30370;SDS011;17164;48.590;11.410;2022-08-01T03:50:01;4.43;;;1.97;;
30370;SDS011;17164;48.590;11.410;2022-08-01T03:52:30;3.20;;;1.90;;
30370;SDS011;17164;48.590;11.410;2022-08-01T03:54:58;2.97;;;1.83;;
30370;SDS011;17164;48.590;11.410;2022-08-01T03:57:34;2.83;;;1.87;;
30370;SDS011;17164;48.590;11.410;2022-08-01T04:00:01;4.10;;;1.80;;
30370;SDS011;17164;48.590;11.410;2022-08-01T04:02:31;2.87;;;2.00;;
30370;SDS011;17164;48.590;11.410;2022-08-01T04:04:56;3.77;;;1.80;;
30370;SDS011;17164;48.590;11.410;2022-08-01T04:07:25;2.77;;;1.77;;
30370;SDS011;17164;48.590;11.410;2022-08-01T04:09:52;2.77;;;1.90;;
30370;SDS011;17164;48.590;11.410;2022-08-01T04:12:18;2.90;;;1.90;;
30370;SDS011;17164;48.590;11.410;2022-08-01T04:14:44;3.93;;;1.90;;
30370;SDS011;17164;48.590;11.410;2022-08-01T04:17:10;4.70;;;2.20;;
30370;SDS011;17164;48.590;11.410;2022-08-01T04:19:36;4.27;;;2.27;;
30370;SDS011;17164;48.590;11.410;2022-08-01T04:22:02;4.37;;;2.10;;
30370;SDS011;17164;48.590;11.410;2022-08-01T04:24:29;2.70;;;1.90;;
30370;SDS011;17164;48.590;11.410;2022-08-01T04:26:57;3.50;;;2.10;;
30370;SDS011;17164;48.590;11.410;2022-08-01T04:29:26;3.20;;;1.83;;
30370;SDS011;17164;48.590;11.410;2022-08-01T04:31:54;2.77;;;1.60;;
30370;SDS011;17164;48.590;11.410;2022-08-01T04:34:23;4.47;;;2.00;;
30370;SDS011;17164;48.590;11.410;2022-08-01T04:36:51;3.17;;;1.80;;
30370;SDS011;17164;48.590;11.410;2022-08-01T04:39:20;6.13;;;2.20;;
30370;SDS011;17164;48.590;11.410;2022-08-01T04:41:52;2.87;;;1.80;;
30370;SDS011;17164;48.590;11.410;2022-08-01T04:44:22;4.20;;;2.00;;
30370;SDS011;17164;48.590;11.410;2022-08-01T04:46:48;4.13;;;1.90;;
30370;SDS011;17164;48.590;11.410;2022-08-01T04:49:15;2.37;;;2.00;;
30370;SDS011;17164;48.590;11.410;2022-08-01T04:51:51;2.80;;;2.13;;
30370;SDS011;17164;48.590;11.410;2022-08-01T04:54:22;3.07;;;1.93;;
30370;SDS011;17164;48.590;11.410;2022-08-01T04:57:01;4.17;;;1.70;;
30370;SDS011;17164;48.590;11.410;2022-08-01T04:59:28;2.53;;;1.60;;
30370;SDS011;17164;48.590;11.410;2022-08-01T05:04:34;5.73;;;2.10;;
30370;SDS011;17164;48.590;11.410;2022-08-01T05:07:00;3.57;;;2.00;;
30370;SDS011;17164;48.590;11.410;2022-08-01T05:09:26;3.87;;;1.90;;
30370;SDS011;17164;48.590;11.410;2022-08-01T05:11:51;3.83;;;2.03;;
30370;SDS011;17164;48.590;11.410;2022-08-01T05:14:17;3.30;;;2.03;;
30370;SDS011;17164;48.590;11.410;2022-08-01T05:16:43;4.17;;;2.03;;
30370;SDS011;17164;48.590;11.410;2022-08-01T05:19:09;3.37;;;1.80;;
30370;SDS011;17164;48.590;11.410;2022-08-01T05:21:36;2.07;;;1.77;;
30370;SDS011;17164;48.590;11.410;2022-08-01T05:24:02;2.67;;;1.63;;
30370;SDS011;17164;48.590;11.410;2022-08-01T05:26:29;4.77;;;1.93;;
30370;SDS011;17164;48.590;11.410;2022-08-01T05:28:54;3.33;;;2.23;;
30370;SDS011;17164;48.590;11.410;2022-08-01T05:31:20;4.50;;;2.10;;
30370;SDS011;17164;48.590;11.410;2022-08-01T05:33:45;4.53;;;2.53;;
30370;SDS011;17164;48.590;11.410;2022-08-01T05:36:11;3.10;;;1.93;;
30370;SDS011;17164;48.590;11.410;2022-08-01T05:38:37;3.43;;;2.17;;
30370;SDS011;17164;48.590;11.410;2022-08-01T05:41:02;3.43;;;2.10;;
30370;SDS011;17164;48.590;11.410;2022-08-01T05:43:28;3.43;;;1.87;;
30370;SDS011;17164;48.590;11.410;2022-08-01T05:45:53;3.27;;;2.10;;
30370;SDS011;17164;48.590;11.410;2022-08-01T05:48:19;4.97;;;1.90;;
30370;SDS011;17164;48.590;11.410;2022-08-01T05:50:45;6.27;;;2.10;;
30370;SDS011;17164;48.590;11.410;2022-08-01T05:53:12;3.73;;;2.10;;
30370;SDS011;17164;48.590;11.410;2022-08-01T05:55:38;4.70;;;2.00;;
30370;SDS011;17164;48.590;11.410;2022-08-01T05:58:03;6.27;;;2.30;;
30370;SDS011;17164;48.590;11.410;2022-08-01T06:00:29;4.97;;;2.40;;
30370;SDS011;17164;48.590;11.410;2022-08-01T06:02:55;3.83;;;2.10;;
30370;SDS011;17164;48.590;11.410;2022-08-01T06:05:20;4.37;;;1.80;;
30370;SDS011;17164;48.590;11.410;2022-08-01T06:07:46;4.93;;;2.00;;
30370;SDS011;17164;48.590;11.410;2022-08-01T06:10:11;4.07;;;2.20;;
30370;SDS011;17164;48.590;11.410;2022-08-01T06:12:37;3.77;;;2.03;;
30370;SDS011;17164;48.590;11.410;2022-08-01T06:15:03;5.13;;;2.07;;
30370;SDS011;17164;48.590;11.410;2022-08-01T06:17:29;7.07;;;2.27;;
30370;SDS011;17164;48.590;11.410;2022-08-01T06:19:55;3.40;;;1.93;;
30370;SDS011;17164;48.590;11.410;2022-08-01T06:22:21;3.00;;;2.07;;
30370;SDS011;17164;48.590;11.410;2022-08-01T06:24:46;3.83;;;2.33;;
30370;SDS011;17164;48.590;11.410;2022-08-01T06:27:12;8.83;;;2.03;;
30370;SDS011;17164;48.590;11.410;2022-08-01T06:29:37;6.60;;;2.10;;
30370;SDS011;17164;48.590;11.410;2022-08-01T06:32:03;3.20;;;1.77;;
30370;SDS011;17164;48.590;11.410;2022-08-01T06:34:29;7.63;;;2.40;;
30370;SDS011;17164;48.590;11.410;2022-08-01T06:36:54;5.57;;;2.50;;
30370;SDS011;17164;48.590;11.410;2022-08-01T06:39:20;5.93;;;2.30;;
30370;SDS011;17164;48.590;11.410;2022-08-01T06:41:46;6.07;;;2.23;;
30370;SDS011;17164;48.590;11.410;2022-08-01T06:44:14;4.57;;;2.20;;
30370;SDS011;17164;48.590;11.410;2022-08-01T06:46:40;4.73;;;2.03;;
30370;SDS011;17164;48.590;11.410;2022-08-01T06:49:06;3.97;;;1.90;;
30370;SDS011;17164;48.590;11.410;2022-08-01T06:51:31;2.83;;;2.27;;
30370;SDS011;17164;48.590;11.410;2022-08-01T06:53:57;3.87;;;2.10;;
30370;SDS011;17164;48.590;11.410;2022-08-01T06:56:22;6.37;;;2.10;;
30370;SDS011;17164;48.590;11.410;2022-08-01T06:58:51;6.33;;;2.20;;
30370;SDS011;17164;48.590;11.410;2022-08-01T07:01:17;4.33;;;1.93;;
30370;SDS011;17164;48.590;11.410;2022-08-01T07:03:42;3.10;;;2.00;;
30370;SDS011;17164;48.590;11.410;2022-08-01T07:06:08;4.03;;;1.80;;
30370;SDS011;17164;48.590;11.410;2022-08-01T07:08:34;2.40;;;1.70;;
30370;SDS011;17164;48.590;11.410;2022-08-01T07:11:00;3.78;;;1.83;;
30370;SDS011;17164;48.590;11.410;2022-08-01T07:13:26;4.57;;;1.57;;
30370;SDS011;17164;48.590;11.410;2022-08-01T07:15:52;3.27;;;1.73;;
30370;SDS011;17164;48.590;11.410;2022-08-01T07:18:18;4.00;;;1.60;;
30370;SDS011;17164;48.590;11.410;2022-08-01T07:20:44;5.33;;;1.93;;
30370;SDS011;17164;48.590;11.410;2022-08-01T07:23:11;2.80;;;1.87;;
30370;SDS011;17164;48.590;11.410;2022-08-01T07:25:37;4.50;;;1.80;;
30370;SDS011;17164;48.590;11.410;2022-08-01T07:28:03;2.93;;;1.70;;
30370;SDS011;17164;48.590;11.410;2022-08-01T07:30:29;3.37;;;1.73;;
30370;SDS011;17164;48.590;11.410;2022-08-01T07:32:55;4.37;;;1.83;;
30370;SDS011;17164;48.590;11.410;2022-08-01T07:35:21;4.13;;;2.13;;
30370;SDS011;17164;48.590;11.410;2022-08-01T07:37:47;4.03;;;1.70;;
30370;SDS011;17164;48.590;11.410;2022-08-01T07:40:13;2.73;;;1.70;;
30370;SDS011;17164;48.590;11.410;2022-08-01T07:42:39;4.87;;;2.17;;
30370;SDS011;17164;48.590;11.410;2022-08-01T07:45:08;3.67;;;1.83;;
30370;SDS011;17164;48.590;11.410;2022-08-01T07:47:34;2.63;;;1.50;;
30370;SDS011;17164;48.590;11.410;2022-08-01T07:50:00;2.40;;;1.53;;
30370;SDS011;17164;48.590;11.410;2022-08-01T07:52:27;1.80;;;1.57;;
30370;SDS011;17164;48.590;11.410;2022-08-01T07:54:53;1.90;;;1.30;;
30370;SDS011;17164;48.590;11.410;2022-08-01T07:57:19;3.13;;;1.60;;
30370;SDS011;17164;48.590;11.410;2022-08-01T07:59:45;2.97;;;1.47;;
30370;SDS011;17164;48.590;11.410;2022-08-01T08:02:11;2.83;;;2.00;;
30370;SDS011;17164;48.590;11.410;2022-08-01T08:04:36;5.90;;;1.73;;
30370;SDS011;17164;48.590;11.410;2022-08-01T08:07:02;2.57;;;1.60;;
30370;SDS011;17164;48.590;11.410;2022-08-01T08:09:27;10.53;;;1.60;;
30370;SDS011;17164;48.590;11.410;2022-08-01T08:11:53;5.60;;;1.80;;
30370;SDS011;17164;48.590;11.410;2022-08-01T08:14:19;2.50;;;1.60;;
30370;SDS011;17164;48.590;11.410;2022-08-01T08:16:47;3.33;;;1.73;;
30370;SDS011;17164;48.590;11.410;2022-08-01T08:19:13;4.80;;;1.83;;
30370;SDS011;17164;48.590;11.410;2022-08-01T08:21:39;2.27;;;1.67;;
30370;SDS011;17164;48.590;11.410;2022-08-01T08:24:05;4.70;;;2.20;;
30370;SDS011;17164;48.590;11.410;2022-08-01T08:26:48;3.30;;;2.00;;
30370;SDS011;17164;48.590;11.410;2022-08-01T08:29:19;4.80;;;1.90;;
30370;SDS011;17164;48.590;11.410;2022-08-01T08:31:45;3.03;;;1.93;;
30370;SDS011;17164;48.590;11.410;2022-08-01T08:34:11;3.37;;;1.83;;
30370;SDS011;17164;48.590;11.410;2022-08-01T08:36:37;6.37;;;2.23;;
30370;SDS011;17164;48.590;11.410;2022-08-01T08:39:03;3.17;;;2.20;;
30370;SDS011;17164;48.590;11.410;2022-08-01T08:41:32;3.77;;;1.83;;
30370;SDS011;17164;48.590;11.410;2022-08-01T08:44:00;4.53;;;2.00;;
30370;SDS011;17164;48.590;11.410;2022-08-01T08:46:26;2.27;;;1.60;;
30370;SDS011;17164;48.590;11.410;2022-08-01T08:48:53;3.27;;;2.10;;
30370;SDS011;17164;48.590;11.410;2022-08-01T08:51:20;2.97;;;2.00;;
30370;SDS011;17164;48.590;11.410;2022-08-01T08:53:48;3.60;;;2.10;;
30370;SDS011;17164;48.590;11.410;2022-08-01T08:56:15;5.80;;;1.90;;
30370;SDS011;17164;48.590;11.410;2022-08-01T08:58:43;4.10;;;2.10;;
30370;SDS011;17164;48.590;11.410;2022-08-01T09:01:10;2.87;;;1.90;;
30370;SDS011;17164;48.590;11.410;2022-08-01T09:03:37;2.40;;;1.63;;
30370;SDS011;17164;48.590;11.410;2022-08-01T09:06:03;2.83;;;2.00;;
30370;SDS011;17164;48.590;11.410;2022-08-01T09:08:29;3.23;;;1.87;;
30370;SDS011;17164;48.590;11.410;2022-08-01T09:10:55;4.50;;;2.47;;
30370;SDS011;17164;48.590;11.410;2022-08-01T09:13:20;4.40;;;2.10;;
30370;SDS011;17164;48.590;11.410;2022-08-01T09:15:50;5.30;;;2.20;;
30370;SDS011;17164;48.590;11.410;2022-08-01T09:18:39;2.07;;;1.50;;
30370;SDS011;17164;48.590;11.410;2022-08-01T09:23:32;4.00;;;1.80;;
30370;SDS011;17164;48.590;11.410;2022-08-01T09:25:58;2.30;;;1.60;;
30370;SDS011;17164;48.590;11.410;2022-08-01T09:28:28;3.33;;;1.40;;
30370;SDS011;17164;48.590;11.410;2022-08-01T09:30:55;4.50;;;1.40;;
30370;SDS011;17164;48.590;11.410;2022-08-01T09:33:21;1.90;;;1.53;;
30370;SDS011;17164;48.590;11.410;2022-08-01T09:35:54;2.83;;;1.80;;
30370;SDS011;17164;48.590;11.410;2022-08-01T09:38:22;2.53;;;1.70;;
30370;SDS011;17164;48.590;11.410;2022-08-01T09:43:26;3.83;;;1.40;;
30370;SDS011;17164;48.590;11.410;2022-08-01T09:45:53;3.27;;;1.90;;
30370;SDS011;17164;48.590;11.410;2022-08-01T09:48:20;2.93;;;1.40;;
30370;SDS011;17164;48.590;11.410;2022-08-01T09:50:47;4.00;;;1.63;;
30370;SDS011;17164;48.590;11.410;2022-08-01T09:53:17;3.07;;;1.37;;
30370;SDS011;17164;48.590;11.410;2022-08-01T09:55:43;3.37;;;1.70;;
30370;SDS011;17164;48.590;11.410;2022-08-01T09:58:12;4.27;;;1.43;;
30370;SDS011;17164;48.590;11.410;2022-08-01T10:00:38;1.80;;;1.20;;
30370;SDS011;17164;48.590;11.410;2022-08-01T10:05:50;2.97;;;1.57;;
30370;SDS011;17164;48.590;11.410;2022-08-01T10:08:18;2.60;;;1.60;;
30370;SDS011;17164;48.590;11.410;2022-08-01T10:13:32;2.37;;;1.37;;
30370;SDS011;17164;48.590;11.410;2022-08-01T10:15:58;4.37;;;1.50;;
30370;SDS011;17164;48.590;11.410;2022-08-01T10:18:25;2.80;;;1.33;;
30370;SDS011;17164;48.590;11.410;2022-08-01T10:20:52;3.10;;;1.30;;
30370;SDS011;17164;48.590;11.410;2022-08-01T10:23:19;3.77;;;1.40;;
30370;SDS011;17164;48.590;11.410;2022-08-01T10:25:45;3.67;;;1.20;;
30370;SDS011;17164;48.590;11.410;2022-08-01T10:28:15;2.27;;;1.20;;
30370;SDS011;17164;48.590;11.410;2022-08-01T10:30:42;1.83;;;1.60;;
30370;SDS011;17164;48.590;11.410;2022-08-01T10:33:09;1.53;;;1.30;;
30370;SDS011;17164;48.590;11.410;2022-08-01T10:35:36;2.83;;;1.30;;
30370;SDS011;17164;48.590;11.410;2022-08-01T10:38:03;2.03;;;1.43;;
30370;SDS011;17164;48.590;11.410;2022-08-01T10:40:30;2.70;;;1.10;;
30370;SDS011;17164;48.590;11.410;2022-08-01T10:42:56;2.60;;;1.53;;
30370;SDS011;17164;48.590;11.410;2022-08-01T10:45:22;1.40;;;1.30;;
30370;SDS011;17164;48.590;11.410;2022-08-01T10:47:56;2.70;;;1.40;;
30370;SDS011;17164;48.590;11.410;2022-08-01T10:50:48;3.63;;;1.40;;
30370;SDS011;17164;48.590;11.410;2022-08-01T10:53:17;1.80;;;1.40;;
30370;SDS011;17164;48.590;11.410;2022-08-01T10:58:26;3.13;;;1.20;;
30370;SDS011;17164;48.590;11.410;2022-08-01T11:04:00;1.70;;;1.20;;
30370;SDS011;17164;48.590;11.410;2022-08-01T11:14:32;4.60;;;1.20;;
30370;SDS011;17164;48.590;11.410;2022-08-01T11:20:05;4.07;;;1.27;;
30370;SDS011;17164;48.590;11.410;2022-08-01T11:26:05;1.60;;;1.10;;
30370;SDS011;17164;48.590;11.410;2022-08-01T11:30:45;1.73;;;0.87;;
30370;SDS011;17164;48.590;11.410;2022-08-01T11:33:47;1.47;;;0.87;;
30370;SDS011;17164;48.590;11.410;2022-08-01T11:38:41;2.57;;;1.00;;
30370;SDS011;17164;48.590;11.410;2022-08-01T11:41:11;1.87;;;0.80;;
30370;SDS011;17164;48.590;11.410;2022-08-01T11:52:25;3.10;;;1.00;;
30370;SDS011;17164;48.590;11.410;2022-08-01T11:54:56;1.60;;;0.90;;
30370;SDS011;17164;48.590;11.410;2022-08-01T11:57:30;1.40;;;1.10;;
30370;SDS011;17164;48.590;11.410;2022-08-01T12:00:00;1.23;;;1.00;;
30370;SDS011;17164;48.590;11.410;2022-08-01T12:02:35;2.53;;;0.97;;
30370;SDS011;17164;48.590;11.410;2022-08-01T12:07:37;1.80;;;1.07;;
30370;SDS011;17164;48.590;11.410;2022-08-01T12:12:34;1.40;;;1.00;;
30370;SDS011;17164;48.590;11.410;2022-08-01T12:15:03;2.57;;;1.13;;
30370;SDS011;17164;48.590;11.410;2022-08-01T12:17:40;2.60;;;1.00;;
30370;SDS011;17164;48.590;11.410;2022-08-01T12:20:15;1.90;;;1.10;;
30370;SDS011;17164;48.590;11.410;2022-08-01T12:22:45;1.50;;;1.03;;
30370;SDS011;17164;48.590;11.410;2022-08-01T12:25:12;2.40;;;1.00;;
30370;SDS011;17164;48.590;11.410;2022-08-01T12:27:40;1.47;;;0.83;;
30370;SDS011;17164;48.590;11.410;2022-08-01T12:30:08;2.60;;;1.37;;
30370;SDS011;17164;48.590;11.410;2022-08-01T12:32:36;10.83;;;1.20;;
30370;SDS011;17164;48.590;11.410;2022-08-01T12:35:09;5.17;;;0.90;;
30370;SDS011;17164;48.590;11.410;2022-08-01T12:37:55;2.00;;;1.03;;
30370;SDS011;17164;48.590;11.410;2022-08-01T12:40:23;2.30;;;1.30;;
30370;SDS011;17164;48.590;11.410;2022-08-01T12:42:50;4.40;;;2.10;;
30370;SDS011;17164;48.590;11.410;2022-08-01T12:45:23;1.10;;;1.00;;
30370;SDS011;17164;48.590;11.410;2022-08-01T12:47:55;1.40;;;1.17;;
30370;SDS011;17164;48.590;11.410;2022-08-01T12:50:23;4.80;;;1.43;;
30370;SDS011;17164;48.590;11.410;2022-08-01T12:52:53;1.93;;;0.97;;
30370;SDS011;17164;48.590;11.410;2022-08-01T12:55:20;1.93;;;0.90;;
30370;SDS011;17164;48.590;11.410;2022-08-01T12:57:50;2.53;;;0.97;;
30370;SDS011;17164;48.590;11.410;2022-08-01T13:00:30;3.17;;;1.10;;
30370;SDS011;17164;48.590;11.410;2022-08-01T13:05:40;1.80;;;1.10;;
30370;SDS011;17164;48.590;11.410;2022-08-01T13:08:14;1.97;;;1.10;;
30370;SDS011;17164;48.590;11.410;2022-08-01T13:10:41;2.00;;;0.90;;
30370;SDS011;17164;48.590;11.410;2022-08-01T13:13:07;2.03;;;1.13;;
30370;SDS011;17164;48.590;11.410;2022-08-01T13:15:34;1.13;;;0.90;;
30370;SDS011;17164;48.590;11.410;2022-08-01T13:18:23;2.97;;;1.00;;
30370;SDS011;17164;48.590;11.410;2022-08-01T13:21:06;1.57;;;0.80;;
30370;SDS011;17164;48.590;11.410;2022-08-01T13:23:32;2.20;;;1.20;;
30370;SDS011;17164;48.590;11.410;2022-08-01T13:25:57;3.50;;;0.90;;
30370;SDS011;17164;48.590;11.410;2022-08-01T13:28:24;2.97;;;1.07;;
30370;SDS011;17164;48.590;11.410;2022-08-01T13:31:09;3.93;;;1.07;;
30370;SDS011;17164;48.590;11.410;2022-08-01T13:33:47;4.93;;;0.90;;
30370;SDS011;17164;48.590;11.410;2022-08-01T13:36:13;2.83;;;0.97;;
30370;SDS011;17164;48.590;11.410;2022-08-01T13:38:39;1.83;;;1.00;;
30370;SDS011;17164;48.590;11.410;2022-08-01T13:41:24;1.07;;;0.90;;
30370;SDS011;17164;48.590;11.410;2022-08-01T13:43:51;2.30;;;1.30;;
30370;SDS011;17164;48.590;11.410;2022-08-01T13:46:17;3.13;;;1.43;;
30370;SDS011;17164;48.590;11.410;2022-08-01T13:48:43;2.67;;;1.00;;
30370;SDS011;17164;48.590;11.410;2022-08-01T13:51:08;3.13;;;1.37;;
30370;SDS011;17164;48.590;11.410;2022-08-01T13:53:34;4.77;;;1.17;;
30370;SDS011;17164;48.590;11.410;2022-08-01T13:56:02;2.37;;;1.20;;
30370;SDS011;17164;48.590;11.410;2022-08-01T13:58:27;2.00;;;1.40;;
30370;SDS011;17164;48.590;11.410;2022-08-01T14:00:53;2.47;;;1.53;;
30370;SDS011;17164;48.590;11.410;2022-08-01T14:03:20;3.27;;;1.60;;
30370;SDS011;17164;48.590;11.410;2022-08-01T14:05:46;2.87;;;1.50;;
30370;SDS011;17164;48.590;11.410;2022-08-01T14:08:12;2.27;;;1.50;;
30370;SDS011;17164;48.590;11.410;2022-08-01T14:10:38;1.57;;;1.43;;
30370;SDS011;17164;48.590;11.410;2022-08-01T14:13:03;3.90;;;1.87;;
30370;SDS011;17164;48.590;11.410;2022-08-01T14:15:29;3.10;;;1.73;;
30370;SDS011;17164;48.590;11.410;2022-08-01T14:17:56;2.60;;;1.63;;
30370;SDS011;17164;48.590;11.410;2022-08-01T14:20:22;3.37;;;1.60;;
30370;SDS011;17164;48.590;11.410;2022-08-01T14:22:48;2.03;;;1.43;;
30370;SDS011;17164;48.590;11.410;2022-08-01T14:25:13;2.23;;;1.60;;
30370;SDS011;17164;48.590;11.410;2022-08-01T14:27:39;2.47;;;1.50;;
30370;SDS011;17164;48.590;11.410;2022-08-01T14:30:06;5.43;;;1.50;;
30370;SDS011;17164;48.590;11.410;2022-08-01T14:32:33;3.30;;;1.50;;
30370;SDS011;17164;48.590;11.410;2022-08-01T14:35:02;2.93;;;1.63;;
30370;SDS011;17164;48.590;11.410;2022-08-01T14:37:29;3.83;;;1.33;;
30370;SDS011;17164;48.590;11.410;2022-08-01T14:39:55;3.63;;;1.60;;
30370;SDS011;17164;48.590;11.410;2022-08-01T14:42:22;3.20;;;1.63;;
30370;SDS011;17164;48.590;11.410;2022-08-01T14:44:48;2.63;;;1.20;;
30370;SDS011;17164;48.590;11.410;2022-08-01T14:47:13;2.53;;;1.50;;
30370;SDS011;17164;48.590;11.410;2022-08-01T14:49:39;1.83;;;1.40;;
30370;SDS011;17164;48.590;11.410;2022-08-01T14:52:05;2.43;;;1.50;;
30370;SDS011;17164;48.590;11.410;2022-08-01T14:54:30;2.10;;;1.47;;
30370;SDS011;17164;48.590;11.410;2022-08-01T14:56:56;2.47;;;1.73;;
30370;SDS011;17164;48.590;11.410;2022-08-01T14:59:22;3.80;;;1.77;;
30370;SDS011;17164;48.590;11.410;2022-08-01T15:01:47;9.80;;;1.90;;
30370;SDS011;17164;48.590;11.410;2022-08-01T15:04:13;6.67;;;2.07;;
30370;SDS011;17164;48.590;11.410;2022-08-01T15:06:39;5.60;;;2.00;;
30370;SDS011;17164;48.590;11.410;2022-08-01T15:09:04;2.53;;;1.40;;
30370;SDS011;17164;48.590;11.410;2022-08-01T15:11:30;3.27;;;1.50;;
30370;SDS011;17164;48.590;11.410;2022-08-01T15:13:55;6.33;;;1.53;;
30370;SDS011;17164;48.590;11.410;2022-08-01T15:16:40;4.37;;;1.57;;
30370;SDS011;17164;48.590;11.410;2022-08-01T15:19:05;1.60;;;1.43;;
30370;SDS011;17164;48.590;11.410;2022-08-01T15:21:31;3.17;;;1.37;;
30370;SDS011;17164;48.590;11.410;2022-08-01T15:23:57;3.33;;;1.20;;
30370;SDS011;17164;48.590;11.410;2022-08-01T15:26:23;6.70;;;1.30;;
30370;SDS011;17164;48.590;11.410;2022-08-01T15:28:48;10.30;;;1.57;;
30370;SDS011;17164;48.590;11.410;2022-08-01T15:31:14;9.20;;;1.80;;
30370;SDS011;17164;48.590;11.410;2022-08-01T15:33:40;6.53;;;1.60;;
30370;SDS011;17164;48.590;11.410;2022-08-01T15:36:05;4.13;;;1.90;;
30370;SDS011;17164;48.590;11.410;2022-08-01T15:38:31;6.20;;;1.70;;
30370;SDS011;17164;48.590;11.410;2022-08-01T15:40:57;3.47;;;1.80;;
30370;SDS011;17164;48.590;11.410;2022-08-01T15:43:22;3.37;;;1.50;;
30370;SDS011;17164;48.590;11.410;2022-08-01T15:45:48;5.53;;;1.60;;
30370;SDS011;17164;48.590;11.410;2022-08-01T15:48:14;2.63;;;1.60;;